Time;durP1;ratioP1;P1;durP2;ratioP2;P2;SDS_P1;SDS_P2;PMS_P1;PMS_P2;Temp;Humidity;BMP_temperature;BMP_pressure;BME280_temperature;BME280_humidity;BME280_pressure;Samples;Min_cycle;Max_cycle;Signal;HPM_P1;HPM_P2
2024/01/18 00:00:37;;;;;;;26.10;17.67;;;;;;;;;;5035968;28;20207;-69
2024/01/18 00:03:03;;;;;;;30.57;18.60;;;;;;;;;;5017477;28;20585;-70
2024/01/18 00:05:29;;;;;;;24.20;16.67;;;;;;;;;;5017324;28;20271;-70
2024/01/18 00:07:55;;;;;;;26.50;17.33;;;;;;;;;;5035323;28;20462;-69
2024/01/18 00:10:26;;;;;;;25.83;17.00;;;;;;;;;;5017544;28;20187;-71
2024/01/18 00:12:52;;;;;;;26.00;18.33;;;;;;;;;;5017502;28;20179;-70
2024/01/18 00:15:18;;;;;;;27.70;18.50;;;;;;;;;;5034902;28;20417;-69
2024/01/18 00:17:44;;;;;;;29.50;18.77;;;;;;;;;;5034729;28;20825;-70
2024/01/18 00:20:10;;;;;;;29.17;18.60;;;;;;;;;;5034864;28;20248;-70
2024/01/18 00:22:36;;;;;;;28.60;18.20;;;;;;;;;;5034937;28;20186;-70
2024/01/18 00:25:02;;;;;;;28.00;18.63;;;;;;;;;;5034875;28;20410;-71
2024/01/18 00:27:28;;;;;;;28.07;18.23;;;;;;;;;;5034908;28;20176;-70
2024/01/18 00:29:54;;;;;;;29.07;18.70;;;;;;;;;;5035480;28;20190;-70
2024/01/18 00:32:20;;;;;;;25.73;17.93;;;;;;;;;;5034920;28;20179;-70
2024/01/18 00:34:46;;;;;;;32.47;18.07;;;;;;;;;;5034573;28;20179;-70
2024/01/18 00:37:14;;;;;;;25.73;19.27;;;;;;;;;;5035123;28;20187;-70
2024/01/18 00:39:43;;;;;;;26.13;18.10;;;;;;;;;;5034776;28;20225;-70
2024/01/18 00:42:09;;;;;;;26.93;19.10;;;;;;;;;;5017188;28;20963;-70
2024/01/18 00:44:35;;;;;;;29.17;19.87;;;;;;;;;;5034394;28;20438;-70
2024/01/18 00:47:01;;;;;;;26.90;19.03;;;;;;;;;;5035050;28;20440;-70
2024/01/18 00:49:27;;;;;;;28.60;17.80;;;;;;;;;;5016984;28;20671;-70
2024/01/18 00:51:53;;;;;;;24.73;17.90;;;;;;;;;;5034249;28;20174;-70
2024/01/18 00:54:19;;;;;;;26.43;19.17;;;;;;;;;;5033584;28;20211;-69
2024/01/18 00:56:45;;;;;;;23.67;17.17;;;;;;;;;;5034087;28;20418;-69
2024/01/18 00:59:11;;;;;;;25.77;18.73;;;;;;;;;;5034203;28;20552;-71
2024/01/18 01:01:37;;;;;;;26.07;18.53;;;;;;;;;;5034129;28;20543;-69
2024/01/18 01:04:02;;;;;;;26.50;18.83;;;;;;;;;;5016268;28;20180;-70
2024/01/18 01:06:28;;;;;;;31.43;18.97;;;;;;;;;;5016436;28;20240;-70
2024/01/18 01:08:54;;;;;;;31.37;18.77;;;;;;;;;;5034045;28;20222;-71
2024/01/18 01:11:20;;;;;;;27.43;18.97;;;;;;;;;;5034620;28;20187;-71
2024/01/18 01:13:46;;;;;;;24.27;17.37;;;;;;;;;;5019217;28;20183;-69
2024/01/18 01:16:12;;;;;;;26.83;18.20;;;;;;;;;;5037202;28;20418;-69
2024/01/18 01:18:38;;;;;;;27.73;19.10;;;;;;;;;;5034647;28;20246;-70
2024/01/18 01:21:05;;;;;;;26.07;17.60;;;;;;;;;;5034135;28;20211;-70
2024/01/18 01:23:31;;;;;;;26.50;18.67;;;;;;;;;;5016244;28;20186;-70
2024/01/18 01:25:58;;;;;;;24.47;17.93;;;;;;;;;;5034136;28;20410;-69
2024/01/18 01:28:24;;;;;;;25.77;18.30;;;;;;;;;;5033653;28;20202;-71
2024/01/18 01:30:50;;;;;;;28.00;18.70;;;;;;;;;;5033781;28;20414;-70
2024/01/18 01:33:16;;;;;;;26.93;18.67;;;;;;;;;;5015678;28;20277;-69
2024/01/18 01:35:41;;;;;;;27.00;19.20;;;;;;;;;;5033817;28;20175;-70
2024/01/18 01:38:07;;;;;;;25.87;18.53;;;;;;;;;;5033626;28;20209;-70
2024/01/18 01:40:33;;;;;;;24.87;19.20;;;;;;;;;;5033817;28;20391;-71
2024/01/18 01:42:59;;;;;;;28.37;19.83;;;;;;;;;;5015623;28;20233;-70
2024/01/18 01:45:25;;;;;;;23.63;17.90;;;;;;;;;;5033444;28;20610;-71
2024/01/18 01:47:51;;;;;;;24.93;18.53;;;;;;;;;;5033270;28;20202;-69
2024/01/18 01:50:17;;;;;;;27.77;19.80;;;;;;;;;;5033442;28;20183;-70
2024/01/18 01:52:44;;;;;;;26.57;18.87;;;;;;;;;;5033271;28;20418;-70
2024/01/18 01:55:12;;;;;;;29.37;19.70;;;;;;;;;;5033373;28;20414;-70
2024/01/18 01:57:38;;;;;;;29.07;19.27;;;;;;;;;;5033212;28;20426;-70
2024/01/18 02:00:04;;;;;;;32.00;20.70;;;;;;;;;;5033174;28;20490;-70
2024/01/18 02:02:31;;;;;;;30.20;18.63;;;;;;;;;;5033271;28;20648;-71
2024/01/18 02:04:58;;;;;;;25.27;19.33;;;;;;;;;;5034090;28;20175;-71
2024/01/18 02:07:25;;;;;;;25.00;19.57;;;;;;;;;;5037272;28;20724;-71
2024/01/18 02:09:51;;;;;;;26.47;18.63;;;;;;;;;;5037598;28;20417;-70
2024/01/18 02:12:17;;;;;;;23.97;18.63;;;;;;;;;;5037667;28;20799;-70
2024/01/18 02:14:45;;;;;;;26.40;19.23;;;;;;;;;;5019451;28;20269;-71
2024/01/18 02:17:11;;;;;;;29.13;19.37;;;;;;;;;;5037031;28;20417;-70
2024/01/18 02:19:37;;;;;;;30.17;19.57;;;;;;;;;;5037061;28;20469;-70
2024/01/18 02:22:04;;;;;;;26.77;18.60;;;;;;;;;;5037320;28;20835;-68
2024/01/18 02:24:33;;;;;;;26.63;19.03;;;;;;;;;;5037616;28;20175;-70
2024/01/18 02:26:59;;;;;;;27.30;18.83;;;;;;;;;;5036821;28;20966;-70
2024/01/18 02:29:26;;;;;;;28.40;18.50;;;;;;;;;;5037610;28;20488;-71
2024/01/18 02:31:52;;;;;;;30.07;18.97;;;;;;;;;;5037213;28;20414;-71
2024/01/18 02:34:18;;;;;;;28.83;19.23;;;;;;;;;;5038208;28;20406;-71
2024/01/18 02:36:44;;;;;;;27.90;19.67;;;;;;;;;;5021120;28;20254;-70
2024/01/18 02:39:11;;;;;;;28.80;19.07;;;;;;;;;;5038768;28;20465;-70
2024/01/18 02:41:37;;;;;;;34.10;21.20;;;;;;;;;;5019926;28;20414;-70
2024/01/18 02:44:03;;;;;;;31.37;19.83;;;;;;;;;;5018794;28;20416;-71
2024/01/18 02:46:33;;;;;;;31.50;19.73;;;;;;;;;;5036363;28;20504;-69
2024/01/18 02:48:59;;;;;;;30.80;19.20;;;;;;;;;;5019179;28;20654;-70
2024/01/18 02:51:25;;;;;;;30.00;19.83;;;;;;;;;;5018789;28;20798;-70
2024/01/18 02:53:51;;;;;;;27.80;19.03;;;;;;;;;;5036525;28;20842;-71
2024/01/18 02:56:17;;;;;;;27.10;19.90;;;;;;;;;;5037294;28;20406;-71
2024/01/18 02:58:43;;;;;;;27.33;19.97;;;;;;;;;;5036438;28;20202;-70
2024/01/18 03:01:09;;;;;;;29.57;19.17;;;;;;;;;;5018479;28;20275;-68
2024/01/18 03:03:35;;;;;;;31.23;21.03;;;;;;;;;;5036095;28;20202;-70
2024/01/18 03:06:02;;;;;;;31.17;19.63;;;;;;;;;;5018360;28;20500;-71
2024/01/18 03:08:27;;;;;;;29.30;19.70;;;;;;;;;;5037035;28;20533;-71
2024/01/18 03:10:53;;;;;;;29.73;20.37;;;;;;;;;;5036211;28;21076;-69
2024/01/18 03:13:19;;;;;;;29.23;21.10;;;;;;;;;;5036567;28;20637;-64
2024/01/18 03:15:45;;;;;;;29.37;18.83;;;;;;;;;;5036257;28;20541;-65
2024/01/18 03:18:11;;;;;;;35.70;20.03;;;;;;;;;;5035076;28;20214;-64
2024/01/18 03:20:37;;;;;;;30.27;20.53;;;;;;;;;;5017903;28;20210;-66
2024/01/18 03:23:04;;;;;;;27.73;19.47;;;;;;;;;;5018024;28;20272;-66
2024/01/18 03:25:30;;;;;;;29.70;19.77;;;;;;;;;;5018373;28;20179;-67
2024/01/18 03:27:56;;;;;;;29.27;20.67;;;;;;;;;;5035727;28;20521;-66
2024/01/18 03:30:22;;;;;;;29.43;19.83;;;;;;;;;;5035451;28;20452;-65
2024/01/18 03:32:48;;;;;;;25.80;20.00;;;;;;;;;;5017817;28;20193;-65
2024/01/18 03:35:14;;;;;;;26.50;19.90;;;;;;;;;;5018091;28;20410;-65
2024/01/18 03:37:40;;;;;;;28.20;20.73;;;;;;;;;;5035470;28;20238;-63
2024/01/18 03:40:10;;;;;;;28.53;20.47;;;;;;;;;;5018130;28;20202;-70
2024/01/18 03:42:40;;;;;;;32.60;20.83;;;;;;;;;;5018456;28;20641;-66
2024/01/18 03:45:06;;;;;;;27.57;19.20;;;;;;;;;;5035423;28;20401;-66
2024/01/18 03:47:32;;;;;;;32.97;20.23;;;;;;;;;;5035309;28;20437;-66
2024/01/18 03:49:58;;;;;;;30.43;21.83;;;;;;;;;;5035297;28;20861;-67
2024/01/18 03:52:24;;;;;;;29.70;20.40;;;;;;;;;;5035246;28;20191;-67
2024/01/18 03:54:50;;;;;;;29.43;20.87;;;;;;;;;;5035586;28;20171;-66
2024/01/18 03:57:16;;;;;;;34.43;22.63;;;;;;;;;;5035316;28;20175;-65
2024/01/18 03:59:44;;;;;;;29.90;21.63;;;;;;;;;;5035887;28;20718;-66
2024/01/18 04:02:10;;;;;;;30.07;19.83;;;;;;;;;;5035243;28;20505;-65
2024/01/18 04:04:36;;;;;;;28.73;20.57;;;;;;;;;;5017268;28;20450;-66
2024/01/18 04:07:02;;;;;;;31.40;21.33;;;;;;;;;;5035114;28;20190;-66
2024/01/18 04:09:28;;;;;;;28.53;20.53;;;;;;;;;;5017463;28;20539;-66
2024/01/18 04:11:54;;;;;;;27.33;21.50;;;;;;;;;;5036200;28;20237;-66
2024/01/18 04:14:20;;;;;;;33.03;21.77;;;;;;;;;;5035941;28;20189;-67
2024/01/18 04:16:47;;;;;;;30.17;21.90;;;;;;;;;;5017233;28;20513;-68
2024/01/18 04:19:13;;;;;;;32.50;21.87;;;;;;;;;;5034902;28;20211;-65
2024/01/18 04:21:39;;;;;;;33.53;21.90;;;;;;;;;;5035307;28;20413;-67
2024/01/18 04:24:05;;;;;;;33.03;21.77;;;;;;;;;;5034827;28;20187;-65
2024/01/18 04:26:33;;;;;;;31.93;23.03;;;;;;;;;;5017131;28;20183;-66
2024/01/18 04:29:00;;;;;;;31.40;23.03;;;;;;;;;;5015970;28;20491;-65
2024/01/18 04:31:26;;;;;;;34.03;23.93;;;;;;;;;;5034648;28;20418;-66
2024/01/18 04:33:52;;;;;;;32.03;23.57;;;;;;;;;;5034932;28;20414;-66
2024/01/18 04:36:18;;;;;;;31.53;21.33;;;;;;;;;;5034732;28;20301;-64
2024/01/18 04:38:44;;;;;;;28.83;22.43;;;;;;;;;;5016714;28;20640;-67
2024/01/18 04:41:10;;;;;;;39.33;22.50;;;;;;;;;;5017862;28;20552;-70
2024/01/18 04:43:35;;;;;;;28.00;22.43;;;;;;;;;;5016939;28;20418;-70
2024/01/18 04:46:04;;;;;;;34.53;23.90;;;;;;;;;;5034648;28;20183;-69
2024/01/18 04:48:30;;;;;;;34.60;22.17;;;;;;;;;;5017229;28;20614;-70
2024/01/18 04:50:57;;;;;;;29.27;21.90;;;;;;;;;;5034698;28;20410;-71
2024/01/18 04:53:23;;;;;;;37.33;22.20;;;;;;;;;;5016649;28;20433;-70
2024/01/18 04:55:49;;;;;;;33.20;23.20;;;;;;;;;;5034351;28;20905;-70
2024/01/18 04:58:15;;;;;;;30.17;21.93;;;;;;;;;;5016886;28;20272;-71
2024/01/18 05:00:41;;;;;;;35.43;24.17;;;;;;;;;;5034327;28;20206;-70
2024/01/18 05:03:07;;;;;;;32.43;22.70;;;;;;;;;;5016581;28;20265;-70
2024/01/18 05:05:33;;;;;;;31.87;22.83;;;;;;;;;;5016761;28;20592;-70
2024/01/18 05:07:59;;;;;;;28.53;22.43;;;;;;;;;;5016840;28;20476;-71
2024/01/18 05:10:25;;;;;;;29.77;22.50;;;;;;;;;;5034153;28;20542;-70
2024/01/18 05:12:52;;;;;;;31.80;21.80;;;;;;;;;;5034424;28;20214;-70
2024/01/18 05:15:18;;;;;;;36.70;23.53;;;;;;;;;;5016219;28;20234;-69
2024/01/18 05:17:46;;;;;;;34.83;24.80;;;;;;;;;;5016212;28;20464;-70
2024/01/18 05:20:15;;;;;;;37.70;22.97;;;;;;;;;;5034611;28;20446;-70
2024/01/18 05:22:42;;;;;;;33.70;24.40;;;;;;;;;;5034120;28;20410;-68
2024/01/18 05:25:08;;;;;;;33.40;24.67;;;;;;;;;;5016275;28;20495;-70
2024/01/18 05:27:34;;;;;;;32.63;24.43;;;;;;;;;;5033754;28;20433;-71
2024/01/18 05:30:00;;;;;;;36.47;27.10;;;;;;;;;;5034371;28;20764;-69
2024/01/18 05:32:27;;;;;;;40.93;25.33;;;;;;;;;;5016080;28;20422;-70
2024/01/18 05:34:53;;;;;;;38.80;24.50;;;;;;;;;;5033812;28;20959;-70
2024/01/18 05:37:22;;;;;;;37.90;24.80;;;;;;;;;;5033957;28;20493;-70
2024/01/18 05:39:50;;;;;;;39.90;29.93;;;;;;;;;;5033331;28;20461;-70
2024/01/18 05:42:16;;;;;;;38.53;28.53;;;;;;;;;;5033935;28;20412;-70
2024/01/18 05:44:42;;;;;;;38.77;26.97;;;;;;;;;;5033876;28;20504;-70
2024/01/18 05:47:08;;;;;;;39.27;27.10;;;;;;;;;;5016215;28;20267;-69
2024/01/18 05:49:34;;;;;;;39.83;26.77;;;;;;;;;;5033348;28;20195;-69
2024/01/18 05:52:00;;;;;;;39.83;25.77;;;;;;;;;;5015914;28;20428;-71
2024/01/18 05:54:26;;;;;;;34.77;24.90;;;;;;;;;;5033445;28;20210;-70
2024/01/18 05:56:51;;;;;;;36.97;24.10;;;;;;;;;;5034359;28;20630;-70
2024/01/18 05:59:17;;;;;;;36.37;24.50;;;;;;;;;;5015875;28;20697;-70
2024/01/18 06:01:43;;;;;;;34.27;24.37;;;;;;;;;;5015812;28;20179;-70
2024/01/18 06:04:09;;;;;;;34.20;24.13;;;;;;;;;;5033298;28;20257;-69
2024/01/18 06:06:35;;;;;;;36.90;23.93;;;;;;;;;;5033299;28;20175;-68
2024/01/18 06:09:01;;;;;;;30.50;22.37;;;;;;;;;;5016304;28;20285;-68
2024/01/18 06:11:27;;;;;;;32.53;22.70;;;;;;;;;;5036771;28;20533;-70
2024/01/18 06:13:53;;;;;;;32.13;23.37;;;;;;;;;;5027554;28;20179;-69
2024/01/18 06:16:19;;;;;;;34.93;22.77;;;;;;;;;;5027918;28;20210;-69
2024/01/18 06:18:46;;;;;;;36.03;22.27;;;;;;;;;;5045055;28;20254;-69
2024/01/18 06:21:12;;;;;;;28.97;21.37;;;;;;;;;;5044972;28;20429;-70
2024/01/18 06:23:38;;;;;;;31.20;21.50;;;;;;;;;;5029244;28;20816;-69
2024/01/18 06:26:08;;;;;;;34.33;22.87;;;;;;;;;;5047576;28;20406;-69
2024/01/18 06:28:34;;;;;;;32.83;22.60;;;;;;;;;;5042638;28;20468;-70
2024/01/18 06:31:00;;;;;;;33.30;23.33;;;;;;;;;;5035185;28;20410;-69
2024/01/18 06:33:26;;;;;;;32.73;23.00;;;;;;;;;;5036385;28;20191;-69
2024/01/18 06:35:53;;;;;;;40.60;25.03;;;;;;;;;;5039373;28;20951;-70
2024/01/18 06:38:21;;;;;;;33.70;24.57;;;;;;;;;;5037207;28;20205;-70
2024/01/18 06:40:48;;;;;;;33.73;23.23;;;;;;;;;;5017388;28;20949;-69
2024/01/18 06:43:14;;;;;;;42.03;25.57;;;;;;;;;;5036073;28;20441;-70
2024/01/18 06:45:40;;;;;;;39.10;25.27;;;;;;;;;;5034274;28;20428;-68
2024/01/18 06:48:06;;;;;;;38.17;25.77;;;;;;;;;;5033475;28;20994;-68
2024/01/18 06:50:33;;;;;;;42.90;26.90;;;;;;;;;;5034200;28;20409;-70
2024/01/18 06:52:59;;;;;;;43.07;29.00;;;;;;;;;;5036322;28;20421;-68
2024/01/18 06:55:25;;;;;;;47.73;28.23;;;;;;;;;;5037588;28;20417;-69
2024/01/18 06:57:51;;;;;;;39.57;27.40;;;;;;;;;;5019607;28;20437;-69
2024/01/18 07:00:24;;;;;;;40.17;26.43;;;;;;;;;;5037804;28;20484;-70
2024/01/18 07:02:53;;;;;;;37.77;26.80;;;;;;;;;;5040382;28;20386;-69
2024/01/18 07:05:19;;;;;;;47.27;26.70;;;;;;;;;;5039285;28;20410;-69
2024/01/18 07:07:45;;;;;;;36.43;26.50;;;;;;;;;;5037165;28;20472;-69
2024/01/18 07:10:11;;;;;;;37.10;26.23;;;;;;;;;;5040549;28;20176;-69
2024/01/18 07:12:37;;;;;;;38.07;26.97;;;;;;;;;;5023211;28;20193;-70
2024/01/18 07:15:03;;;;;;;39.93;26.10;;;;;;;;;;5040882;28;20229;-67
2024/01/18 07:17:29;;;;;;;39.63;26.73;;;;;;;;;;5040051;28;20421;-71
2024/01/18 07:19:59;;;;;;;38.10;26.47;;;;;;;;;;5037060;28;20508;-69
2024/01/18 07:22:28;;;;;;;39.70;26.67;;;;;;;;;;5036557;28;20653;-69
2024/01/18 07:24:54;;;;;;;35.57;25.93;;;;;;;;;;5036170;28;20464;-70
2024/01/18 07:27:20;;;;;;;41.70;26.70;;;;;;;;;;5018722;28;20465;-70
2024/01/18 07:29:49;;;;;;;40.40;25.17;;;;;;;;;;5018803;28;20426;-68
2024/01/18 07:32:15;;;;;;;38.40;25.43;;;;;;;;;;5036071;28;20206;-68
2024/01/18 07:34:40;;;;;;;36.60;24.90;;;;;;;;;;5036104;28;20907;-70
2024/01/18 07:37:08;;;;;;;35.23;24.73;;;;;;;;;;5018453;28;20708;-70
2024/01/18 07:39:34;;;;;;;37.90;25.13;;;;;;;;;;5035918;28;20578;-69
2024/01/18 07:42:00;;;;;;;36.07;24.93;;;;;;;;;;5035914;28;20804;-70
2024/01/18 07:44:27;;;;;;;35.90;24.87;;;;;;;;;;5018396;28;20497;-68
2024/01/18 07:46:53;;;;;;;36.10;25.57;;;;;;;;;;5036166;28;20918;-71
2024/01/18 07:49:20;;;;;;;35.87;23.90;;;;;;;;;;5018223;28;20534;-68
2024/01/18 07:51:46;;;;;;;32.93;24.13;;;;;;;;;;5035752;28;20414;-69
2024/01/18 07:54:13;;;;;;;37.87;25.17;;;;;;;;;;5018039;28;20856;-70
2024/01/18 07:56:39;;;;;;;36.43;24.77;;;;;;;;;;5017739;28;20183;-69
2024/01/18 07:59:05;;;;;;;41.20;24.93;;;;;;;;;;5035348;28;20438;-70
2024/01/18 08:01:31;;;;;;;35.83;23.80;;;;;;;;;;5035588;28;20198;-69
2024/01/18 08:03:57;;;;;;;36.07;25.17;;;;;;;;;;5035383;28;20171;-68
2024/01/18 08:06:23;;;;;;;42.63;25.20;;;;;;;;;;5017820;28;20316;-69
2024/01/18 08:08:49;;;;;;;38.37;24.33;;;;;;;;;;5035504;28;20203;-68
2024/01/18 08:11:14;;;;;;;36.40;23.07;;;;;;;;;;5035401;28;20186;-69
2024/01/18 08:13:41;;;;;;;31.77;22.47;;;;;;;;;;5035763;28;20186;-69
2024/01/18 08:16:10;;;;;;;38.13;26.03;;;;;;;;;;5035568;28;20183;-68
2024/01/18 08:18:39;;;;;;;43.97;26.63;;;;;;;;;;5035235;28;20819;-69
2024/01/18 08:21:05;;;;;;;42.80;25.83;;;;;;;;;;5035172;28;20488;-69
2024/01/18 08:23:31;;;;;;;40.33;26.10;;;;;;;;;;5035318;28;20939;-69
2024/01/18 08:25:57;;;;;;;42.57;29.83;;;;;;;;;;5035010;28;20770;-70
2024/01/18 08:28:23;;;;;;;38.63;27.50;;;;;;;;;;5035039;28;20441;-69
2024/01/18 08:30:49;;;;;;;39.53;28.33;;;;;;;;;;5016890;28;20179;-68
2024/01/18 08:33:16;;;;;;;41.40;28.03;;;;;;;;;;5016988;28;20417;-70
2024/01/18 08:35:42;;;;;;;37.63;24.87;;;;;;;;;;5017011;28;20190;-69
2024/01/18 08:38:08;;;;;;;38.30;25.83;;;;;;;;;;5016898;28;20444;-70
2024/01/18 08:40:34;;;;;;;43.50;26.37;;;;;;;;;;5034603;28;20465;-70
2024/01/18 08:43:00;;;;;;;41.80;26.23;;;;;;;;;;5035048;28;20521;-69
2024/01/18 08:45:27;;;;;;;37.37;23.63;;;;;;;;;;5035089;28;20460;-68
2024/01/18 08:47:53;;;;;;;33.23;23.67;;;;;;;;;;5035160;28;20434;-69
2024/01/18 08:50:20;;;;;;;33.03;23.67;;;;;;;;;;5017110;28;20453;-68
2024/01/18 08:52:47;;;;;;;29.50;23.77;;;;;;;;;;5016755;28;20454;-69
2024/01/18 08:55:13;;;;;;;34.80;22.50;;;;;;;;;;5034982;28;20438;-69
2024/01/18 08:57:39;;;;;;;31.37;24.00;;;;;;;;;;5034599;28;20810;-70
2024/01/18 09:00:06;;;;;;;35.43;23.60;;;;;;;;;;5016329;28;20599;-70
2024/01/18 09:02:32;;;;;;;35.73;23.90;;;;;;;;;;5034245;28;20641;-69
2024/01/18 09:04:58;;;;;;;37.57;25.60;;;;;;;;;;5034593;28;20412;-69
2024/01/18 09:07:24;;;;;;;36.53;25.43;;;;;;;;;;5034213;28;20433;-69
2024/01/18 09:09:51;;;;;;;32.83;22.13;;;;;;;;;;5016701;28;20413;-69
2024/01/18 09:12:17;;;;;;;38.93;23.87;;;;;;;;;;5016916;28;20417;-67
2024/01/18 09:14:44;;;;;;;33.57;22.93;;;;;;;;;;5033599;28;20764;-69
2024/01/18 09:17:10;;;;;;;27.43;19.50;;;;;;;;;;5034233;28;20182;-69
2024/01/18 09:19:36;;;;;;;26.83;20.13;;;;;;;;;;5034054;28;20469;-69
2024/01/18 09:22:02;;;;;;;25.70;19.93;;;;;;;;;;5034144;28;20175;-69
2024/01/18 09:24:29;;;;;;;40.27;21.43;;;;;;;;;;5016443;28;20512;-71
2024/01/18 09:26:55;;;;;;;28.03;19.90;;;;;;;;;;5034239;28;20456;-70
2024/01/18 09:29:21;;;;;;;24.93;20.27;;;;;;;;;;5016020;28;20627;-69
2024/01/18 09:31:47;;;;;;;28.63;18.93;;;;;;;;;;5033605;28;20190;-70
2024/01/18 09:34:13;;;;;;;28.27;18.97;;;;;;;;;;5015754;28;20179;-70
2024/01/18 09:36:40;;;;;;;26.77;18.47;;;;;;;;;;5033764;28;20190;-69
2024/01/18 09:39:15;;;;;;;23.90;17.30;;;;;;;;;;5033821;28;20275;-69
2024/01/18 09:41:42;;;;;;;21.83;16.13;;;;;;;;;;5016180;28;20836;-69
2024/01/18 09:44:11;;;;;;;23.80;16.10;;;;;;;;;;5033862;28;20782;-70
2024/01/18 09:46:38;;;;;;;21.90;14.73;;;;;;;;;;5033847;28;20254;-70
2024/01/18 09:49:07;;;;;;;20.40;14.37;;;;;;;;;;5015846;28;20699;-69
2024/01/18 09:51:33;;;;;;;24.90;14.10;;;;;;;;;;5033853;28;20841;-69
2024/01/18 09:54:00;;;;;;;19.97;14.40;;;;;;;;;;5033754;28;20179;-70
2024/01/18 09:56:31;;;;;;;23.87;14.33;;;;;;;;;;5016410;28;20179;-69
2024/01/18 09:58:58;;;;;;;19.57;12.93;;;;;;;;;;5033284;28;20433;-70
2024/01/18 10:01:24;;;;;;;19.03;12.20;;;;;;;;;;5016486;28;20406;-69
2024/01/18 10:03:51;;;;;;;15.67;10.80;;;;;;;;;;5016291;28;20552;-70
2024/01/18 10:06:17;;;;;;;15.47;11.07;;;;;;;;;;5034940;28;20409;-69
2024/01/18 10:08:44;;;;;;;20.20;11.47;;;;;;;;;;5036990;28;20429;-70
2024/01/18 10:11:10;;;;;;;18.37;11.77;;;;;;;;;;5038529;28;20666;-69
2024/01/18 10:13:52;;;;;;;16.40;10.17;;;;;;;;;;5027324;28;20186;-68
2024/01/18 10:16:32;;;;;;;20.77;9.87;;;;;;;;;;5022181;28;20217;-69
2024/01/18 10:19:00;;;;;;;14.70;10.33;;;;;;;;;;5034437;28;20222;-69
2024/01/18 10:21:27;;;;;;;12.70;8.93;;;;;;;;;;5016391;28;20209;-66
2024/01/18 10:23:54;;;;;;;13.03;8.47;;;;;;;;;;5034035;28;20180;-67
2024/01/18 10:26:21;;;;;;;12.67;8.07;;;;;;;;;;5033356;28;20183;-69
2024/01/18 10:28:47;;;;;;;13.13;8.30;;;;;;;;;;5019710;28;20195;-67
2024/01/18 10:31:13;;;;;;;11.57;7.87;;;;;;;;;;5019867;28;20182;-69
2024/01/18 10:33:39;;;;;;;15.63;7.13;;;;;;;;;;5038068;28;20183;-68
2024/01/18 10:36:06;;;;;;;17.23;12.97;;;;;;;;;;5037259;28;20202;-69
2024/01/18 10:38:32;;;;;;;8.33;7.20;;;;;;;;;;5037078;28;20202;-69
2024/01/18 10:40:59;;;;;;;10.53;7.37;;;;;;;;;;5037546;28;20203;-68
2024/01/18 10:43:32;;;;;;;16.17;7.57;;;;;;;;;;5019326;28;20186;-70
2024/01/18 10:45:59;;;;;;;11.27;6.80;;;;;;;;;;5036973;28;20182;-68
2024/01/18 10:48:28;;;;;;;9.57;6.30;;;;;;;;;;5036816;28;20202;-69
2024/01/18 10:50:55;;;;;;;10.30;6.93;;;;;;;;;;5019436;28;20183;-69
2024/01/18 10:53:22;;;;;;;7.80;6.60;;;;;;;;;;5038004;28;20448;-69
2024/01/18 10:55:48;;;;;;;14.23;7.00;;;;;;;;;;5019135;28;20227;-70
2024/01/18 10:58:14;;;;;;;10.80;6.67;;;;;;;;;;5019936;28;20207;-69
2024/01/18 11:00:40;;;;;;;9.80;6.10;;;;;;;;;;5037301;28;20206;-69
2024/01/18 11:03:07;;;;;;;12.27;7.37;;;;;;;;;;5037291;28;20179;-69
2024/01/18 11:05:33;;;;;;;9.27;6.53;;;;;;;;;;5037029;28;20179;-68
2024/01/18 11:07:59;;;;;;;10.93;6.60;;;;;;;;;;5037913;28;20278;-68
2024/01/18 11:10:25;;;;;;;12.87;6.53;;;;;;;;;;5037658;28;20703;-69
2024/01/18 11:12:52;;;;;;;14.53;6.60;;;;;;;;;;5037692;28;20183;-67
2024/01/18 11:15:19;;;;;;;11.10;5.50;;;;;;;;;;5037092;28;20221;-69
2024/01/18 11:17:48;;;;;;;11.40;5.37;;;;;;;;;;5037194;28;20214;-68
2024/01/18 11:20:14;;;;;;;12.37;5.10;;;;;;;;;;5037082;28;20191;-68
2024/01/18 11:22:40;;;;;;;14.73;6.57;;;;;;;;;;5019792;28;20183;-67
2024/01/18 11:25:07;;;;;;;11.07;5.97;;;;;;;;;;5038006;28;20253;-69
2024/01/18 11:27:37;;;;;;;13.40;6.67;;;;;;;;;;5037043;28;20197;-69
2024/01/18 11:30:05;;;;;;;11.40;5.77;;;;;;;;;;5036791;28;20194;-70
2024/01/18 11:32:33;;;;;;;10.77;6.10;;;;;;;;;;5019133;28;20179;-69
2024/01/18 11:35:14;;;;;;;10.13;5.80;;;;;;;;;;5037123;28;20179;-69
2024/01/18 11:37:40;;;;;;;7.43;4.57;;;;;;;;;;5036652;28;20209;-70
2024/01/18 11:40:08;;;;;;;8.90;4.93;;;;;;;;;;5036170;28;20207;-63
2024/01/18 11:42:34;;;;;;;10.20;4.93;;;;;;;;;;5036581;28;20182;-64
2024/01/18 11:45:01;;;;;;;10.17;4.57;;;;;;;;;;5018426;28;20179;-64
2024/01/18 11:47:31;;;;;;;8.90;5.43;;;;;;;;;;5017775;28;20270;-63
2024/01/18 11:49:58;;;;;;;8.87;5.27;;;;;;;;;;5035797;28;20229;-68
2024/01/18 11:52:24;;;;;;;6.83;4.43;;;;;;;;;;5036251;28;20205;-64
2024/01/18 11:54:55;;;;;;;9.47;4.67;;;;;;;;;;5035253;28;20179;-63
2024/01/18 11:57:22;;;;;;;7.30;4.17;;;;;;;;;;5036153;28;20176;-64
2024/01/18 11:59:48;;;;;;;10.43;4.57;;;;;;;;;;5018029;28;20268;-66
2024/01/18 12:02:14;;;;;;;8.93;4.80;;;;;;;;;;5036053;28;20250;-63
2024/01/18 12:04:40;;;;;;;5.77;3.57;;;;;;;;;;5017991;28;20183;-62
2024/01/18 12:07:07;;;;;;;9.63;4.40;;;;;;;;;;5035845;28;20175;-63
2024/01/18 12:09:33;;;;;;;10.00;3.90;;;;;;;;;;5035803;28;20252;-63
2024/01/18 12:11:59;;;;;;;10.30;3.73;;;;;;;;;;5035868;28;20175;-64
2024/01/18 12:14:26;;;;;;;6.77;3.57;;;;;;;;;;5036453;28;20236;-63
2024/01/18 12:16:52;;;;;;;4.43;2.80;;;;;;;;;;5018037;28;20646;-64
2024/01/18 12:19:31;;;;;;;4.53;2.70;;;;;;;;;;5035175;28;20214;-63
2024/01/18 12:21:57;;;;;;;4.20;2.60;;;;;;;;;;5035772;28;20175;-63
2024/01/18 12:24:24;;;;;;;6.47;2.77;;;;;;;;;;5035645;28;20263;-64
2024/01/18 12:26:49;;;;;;;4.50;2.57;;;;;;;;;;5035652;28;20175;-64
2024/01/18 12:29:16;;;;;;;5.47;2.40;;;;;;;;;;5017688;28;20257;-65
2024/01/18 12:31:45;;;;;;;6.37;2.97;;;;;;;;;;5017703;28;20186;-62
2024/01/18 12:34:11;;;;;;;4.37;2.53;;;;;;;;;;5017137;28;20247;-63
2024/01/18 12:36:38;;;;;;;5.30;3.60;;;;;;;;;;5017408;28;20217;-62
2024/01/18 12:39:04;;;;;;;16.47;9.00;;;;;;;;;;5017542;28;20206;-65
2024/01/18 12:41:31;;;;;;;4.77;3.10;;;;;;;;;;5035799;28;20187;-64
2024/01/18 12:44:04;;;;;;;8.70;2.10;;;;;;;;;;5017518;28;20182;-65
2024/01/18 12:46:29;;;;;;;5.60;2.80;;;;;;;;;;5017592;28;20178;-63
2024/01/18 12:48:56;;;;;;;6.07;2.30;;;;;;;;;;5016887;28;20203;-61
2024/01/18 12:51:22;;;;;;;6.83;2.20;;;;;;;;;;5016608;28;20187;-63
2024/01/18 12:53:49;;;;;;;5.87;2.13;;;;;;;;;;5017344;28;20183;-63
2024/01/18 12:56:16;;;;;;;4.30;2.23;;;;;;;;;;5017101;28;20191;-61
2024/01/18 12:58:42;;;;;;;5.23;2.33;;;;;;;;;;5034763;28;20641;-64
2024/01/18 13:01:08;;;;;;;4.30;2.20;;;;;;;;;;5034596;28;20199;-64
2024/01/18 13:03:34;;;;;;;6.70;1.97;;;;;;;;;;5034957;28;20179;-64
2024/01/18 13:06:00;;;;;;;4.90;1.87;;;;;;;;;;5034977;28;20254;-63
2024/01/18 13:08:26;;;;;;;3.37;1.77;;;;;;;;;;5016836;28;20206;-63
2024/01/18 13:10:52;;;;;;;15.47;7.67;;;;;;;;;;5016270;28;20214;-62
2024/01/18 13:13:18;;;;;;;8.70;4.93;;;;;;;;;;5033920;28;20179;-63
2024/01/18 13:15:44;;;;;;;4.03;2.30;;;;;;;;;;5034156;28;20579;-62
2024/01/18 13:18:10;;;;;;;7.47;2.90;;;;;;;;;;5016584;28;20219;-62
2024/01/18 13:20:41;;;;;;;8.23;2.80;;;;;;;;;;5034761;28;20707;-62
2024/01/18 13:23:09;;;;;;;6.87;2.60;;;;;;;;;;5016563;28;20645;-63
2024/01/18 13:25:35;;;;;;;3.70;2.50;;;;;;;;;;5033921;28;20175;-63
2024/01/18 13:28:01;;;;;;;7.20;2.67;;;;;;;;;;5034070;28;20246;-62
2024/01/18 13:30:27;;;;;;;7.97;2.70;;;;;;;;;;5033874;28;20217;-64
2024/01/18 13:32:53;;;;;;;3.97;2.30;;;;;;;;;;5034427;28;20179;-62
2024/01/18 13:35:19;;;;;;;4.53;2.57;;;;;;;;;;5034045;28;20189;-63
2024/01/18 13:37:45;;;;;;;6.60;2.20;;;;;;;;;;5033797;28;20203;-64
2024/01/18 13:40:11;;;;;;;6.73;2.07;;;;;;;;;;5034079;28;20218;-62
2024/01/18 13:42:37;;;;;;;6.93;4.10;;;;;;;;;;5033849;28;20175;-63
2024/01/18 13:45:03;;;;;;;7.33;2.13;;;;;;;;;;5034087;28;20186;-64
2024/01/18 13:47:29;;;;;;;3.53;2.20;;;;;;;;;;5033644;28;20219;-64
2024/01/18 13:49:55;;;;;;;6.97;2.90;;;;;;;;;;5034172;28;20324;-63
2024/01/18 13:52:22;;;;;;;6.03;4.07;;;;;;;;;;5033779;28;20179;-63
2024/01/18 13:54:48;;;;;;;7.00;2.20;;;;;;;;;;5016174;28;20183;-64
2024/01/18 13:57:14;;;;;;;7.33;2.53;;;;;;;;;;5033534;28;20675;-63
2024/01/18 13:59:40;;;;;;;5.63;2.63;;;;;;;;;;5033850;28;20572;-64
2024/01/18 14:02:06;;;;;;;7.97;2.37;;;;;;;;;;5033303;28;20229;-63
2024/01/18 14:04:32;;;;;;;3.70;2.10;;;;;;;;;;5033404;28;20250;-62
2024/01/18 14:06:58;;;;;;;3.57;1.87;;;;;;;;;;5034007;28;20592;-63
2024/01/18 14:09:24;;;;;;;5.43;2.93;;;;;;;;;;5033486;28;20199;-62
2024/01/18 14:11:50;;;;;;;4.83;2.63;;;;;;;;;;5033967;28;20182;-63
2024/01/18 14:14:16;;;;;;;4.17;2.60;;;;;;;;;;5015993;28;20187;-63
2024/01/18 14:16:42;;;;;;;10.03;3.10;;;;;;;;;;5015940;28;20183;-64
2024/01/18 14:19:09;;;;;;;6.93;2.80;;;;;;;;;;5033474;28;20215;-63